sensor_id;sensor_type;location;lat;lon;timestamp;P1;durP1;ratioP1;P2;durP2;ratioP2
13415;SDS011;6779;50.150;8.680;2022-09-12T00:00:28;11.77;;;7.93;;
13415;SDS011;6779;50.150;8.680;2022-09-12T00:02:56;13.10;;;8.10;;
13415;SDS011;6779;50.150;8.680;2022-09-12T00:05:22;12.23;;;7.67;;
13415;SDS011;6779;50.150;8.680;2022-09-12T00:07:49;14.27;;;8.37;;
13415;SDS011;6779;50.150;8.680;2022-09-12T00:10:14;12.03;;;7.40;;
13415;SDS011;6779;50.150;8.680;2022-09-12T00:12:41;13.57;;;8.33;;
13415;SDS011;6779;50.150;8.680;2022-09-12T00:15:06;12.37;;;7.33;;
13415;SDS011;6779;50.150;8.680;2022-09-12T00:17:33;13.73;;;8.07;;
13415;SDS011;6779;50.150;8.680;2022-09-12T00:19:59;13.07;;;7.43;;
13415;SDS011;6779;50.150;8.680;2022-09-12T00:22:25;11.20;;;7.90;;
13415;SDS011;6779;50.150;8.680;2022-09-12T00:24:51;11.30;;;7.47;;
13415;SDS011;6779;50.150;8.680;2022-09-12T00:27:16;14.97;;;7.90;;
13415;SDS011;6779;50.150;8.680;2022-09-12T00:29:42;13.23;;;7.83;;
13415;SDS011;6779;50.150;8.680;2022-09-12T00:32:07;13.30;;;8.00;;
13415;SDS011;6779;50.150;8.680;2022-09-12T00:34:33;13.70;;;8.10;;
13415;SDS011;6779;50.150;8.680;2022-09-12T00:36:58;14.40;;;8.70;;
13415;SDS011;6779;50.150;8.680;2022-09-12T00:39:24;18.53;;;8.70;;
13415;SDS011;6779;50.150;8.680;2022-09-12T00:41:49;12.20;;;8.10;;
13415;SDS011;6779;50.150;8.680;2022-09-12T00:49:39;14.10;;;7.97;;
13415;SDS011;6779;50.150;8.680;2022-09-12T00:52:12;15.97;;;8.77;;
13415;SDS011;6779;50.150;8.680;2022-09-12T00:54:45;14.53;;;9.33;;
13415;SDS011;6779;50.150;8.680;2022-09-12T00:57:17;17.67;;;8.83;;
13415;SDS011;6779;50.150;8.680;2022-09-12T01:00:27;15.07;;;9.30;;
13415;SDS011;6779;50.150;8.680;2022-09-12T01:02:39;14.37;;;8.70;;
13415;SDS011;6779;50.150;8.680;2022-09-12T01:05:09;15.47;;;8.93;;
13415;SDS011;6779;50.150;8.680;2022-09-12T01:07:36;12.47;;;8.10;;
13415;SDS011;6779;50.150;8.680;2022-09-12T01:10:03;16.03;;;9.23;;
13415;SDS011;6779;50.150;8.680;2022-09-12T01:12:30;14.33;;;9.17;;
13415;SDS011;6779;50.150;8.680;2022-09-12T01:14:57;15.60;;;8.77;;
13415;SDS011;6779;50.150;8.680;2022-09-12T01:17:23;13.47;;;8.00;;
13415;SDS011;6779;50.150;8.680;2022-09-12T01:31:21;13.30;;;9.57;;
13415;SDS011;6779;50.150;8.680;2022-09-12T01:34:01;14.13;;;8.60;;
13415;SDS011;6779;50.150;8.680;2022-09-12T01:36:33;14.90;;;8.77;;
13415;SDS011;6779;50.150;8.680;2022-09-12T01:39:04;16.93;;;9.77;;
13415;SDS011;6779;50.150;8.680;2022-09-12T01:44:39;14.97;;;8.83;;
13415;SDS011;6779;50.150;8.680;2022-09-12T01:55:21;13.60;;;7.93;;
13415;SDS011;6779;50.150;8.680;2022-09-12T01:57:53;15.17;;;9.30;;
13415;SDS011;6779;50.150;8.680;2022-09-12T02:00:31;14.70;;;9.17;;
13415;SDS011;6779;50.150;8.680;2022-09-12T02:03:00;12.47;;;7.77;;
13415;SDS011;6779;50.150;8.680;2022-09-12T02:05:36;15.90;;;9.03;;
13415;SDS011;6779;50.150;8.680;2022-09-12T02:08:21;17.80;;;9.63;;
13415;SDS011;6779;50.150;8.680;2022-09-12T02:10:54;17.07;;;9.37;;
13415;SDS011;6779;50.150;8.680;2022-09-12T02:13:23;16.97;;;9.37;;
13415;SDS011;6779;50.150;8.680;2022-09-12T02:15:55;16.43;;;9.47;;
13415;SDS011;6779;50.150;8.680;2022-09-12T02:18:27;14.87;;;8.40;;
13415;SDS011;6779;50.150;8.680;2022-09-12T02:20:56;17.10;;;9.50;;
13415;SDS011;6779;50.150;8.680;2022-09-12T02:23:23;18.83;;;10.37;;
13415;SDS011;6779;50.150;8.680;2022-09-12T02:26:28;14.97;;;9.37;;
13415;SDS011;6779;50.150;8.680;2022-09-12T02:28:47;16.30;;;9.10;;
13415;SDS011;6779;50.150;8.680;2022-09-12T02:31:16;15.17;;;9.00;;
13415;SDS011;6779;50.150;8.680;2022-09-12T02:33:50;15.67;;;8.90;;
13415;SDS011;6779;50.150;8.680;2022-09-12T02:36:31;16.87;;;9.27;;
13415;SDS011;6779;50.150;8.680;2022-09-12T02:39:07;16.57;;;9.17;;
13415;SDS011;6779;50.150;8.680;2022-09-12T02:41:33;16.93;;;9.83;;
13415;SDS011;6779;50.150;8.680;2022-09-12T02:43:59;16.90;;;10.00;;
13415;SDS011;6779;50.150;8.680;2022-09-12T02:46:33;15.60;;;8.80;;
13415;SDS011;6779;50.150;8.680;2022-09-12T02:49:06;16.93;;;9.23;;
13415;SDS011;6779;50.150;8.680;2022-09-12T02:51:32;17.17;;;9.30;;
13415;SDS011;6779;50.150;8.680;2022-09-12T02:53:57;14.93;;;8.43;;
13415;SDS011;6779;50.150;8.680;2022-09-12T02:56:24;15.07;;;7.70;;
13415;SDS011;6779;50.150;8.680;2022-09-12T02:58:52;18.07;;;9.63;;
13415;SDS011;6779;50.150;8.680;2022-09-12T03:01:27;15.83;;;8.80;;
13415;SDS011;6779;50.150;8.680;2022-09-12T03:12:45;15.03;;;8.47;;
13415;SDS011;6779;50.150;8.680;2022-09-12T03:15:21;14.97;;;9.17;;
13415;SDS011;6779;50.150;8.680;2022-09-12T03:21:01;14.67;;;9.00;;
13415;SDS011;6779;50.150;8.680;2022-09-12T03:29:20;15.10;;;8.77;;
13415;SDS011;6779;50.150;8.680;2022-09-12T03:31:51;17.27;;;8.80;;
13415;SDS011;6779;50.150;8.680;2022-09-12T03:34:21;14.50;;;8.57;;
13415;SDS011;6779;50.150;8.680;2022-09-12T03:36:47;15.37;;;9.07;;
13415;SDS011;6779;50.150;8.680;2022-09-12T03:39:14;14.70;;;8.80;;
13415;SDS011;6779;50.150;8.680;2022-09-12T03:41:40;12.33;;;7.90;;
13415;SDS011;6779;50.150;8.680;2022-09-12T03:44:06;13.97;;;8.23;;
13415;SDS011;6779;50.150;8.680;2022-09-12T03:46:31;16.73;;;9.20;;
13415;SDS011;6779;50.150;8.680;2022-09-12T03:48:57;14.13;;;8.90;;
13415;SDS011;6779;50.150;8.680;2022-09-12T03:51:23;19.87;;;8.53;;
13415;SDS011;6779;50.150;8.680;2022-09-12T03:53:48;18.73;;;9.20;;
13415;SDS011;6779;50.150;8.680;2022-09-12T03:56:15;16.43;;;9.03;;
13415;SDS011;6779;50.150;8.680;2022-09-12T03:58:42;14.53;;;8.47;;
13415;SDS011;6779;50.150;8.680;2022-09-12T04:01:11;14.17;;;8.80;;
13415;SDS011;6779;50.150;8.680;2022-09-12T04:03:40;14.33;;;8.10;;
13415;SDS011;6779;50.150;8.680;2022-09-12T04:06:06;15.37;;;8.37;;
13415;SDS011;6779;50.150;8.680;2022-09-12T04:08:34;13.57;;;7.97;;
13415;SDS011;6779;50.150;8.680;2022-09-12T04:11:04;14.60;;;8.90;;
13415;SDS011;6779;50.150;8.680;2022-09-12T04:13:31;14.10;;;8.53;;
13415;SDS011;6779;50.150;8.680;2022-09-12T04:15:57;16.07;;;8.03;;
13415;SDS011;6779;50.150;8.680;2022-09-12T04:18:23;15.60;;;8.67;;
13415;SDS011;6779;50.150;8.680;2022-09-12T04:20:49;12.10;;;7.40;;
13415;SDS011;6779;50.150;8.680;2022-09-12T04:23:14;14.40;;;7.80;;
13415;SDS011;6779;50.150;8.680;2022-09-12T04:25:40;13.17;;;7.83;;
13415;SDS011;6779;50.150;8.680;2022-09-12T04:28:05;13.93;;;8.47;;
13415;SDS011;6779;50.150;8.680;2022-09-12T04:30:32;13.97;;;8.40;;
13415;SDS011;6779;50.150;8.680;2022-09-12T04:32:58;13.20;;;7.60;;
13415;SDS011;6779;50.150;8.680;2022-09-12T04:35:24;12.17;;;7.73;;
13415;SDS011;6779;50.150;8.680;2022-09-12T04:37:50;13.37;;;8.97;;
13415;SDS011;6779;50.150;8.680;2022-09-12T04:40:15;13.63;;;9.20;;
13415;SDS011;6779;50.150;8.680;2022-09-12T04:42:41;15.07;;;7.63;;
13415;SDS011;6779;50.150;8.680;2022-09-12T04:45:06;14.97;;;8.40;;
13415;SDS011;6779;50.150;8.680;2022-09-12T04:47:32;13.50;;;8.23;;
13415;SDS011;6779;50.150;8.680;2022-09-12T04:49:58;15.57;;;8.37;;
13415;SDS011;6779;50.150;8.680;2022-09-12T04:52:23;15.30;;;9.40;;
13415;SDS011;6779;50.150;8.680;2022-09-12T04:54:49;12.63;;;7.87;;
13415;SDS011;6779;50.150;8.680;2022-09-12T04:57:14;14.40;;;8.17;;
13415;SDS011;6779;50.150;8.680;2022-09-12T04:59:40;19.60;;;8.97;;
13415;SDS011;6779;50.150;8.680;2022-09-12T05:02:06;15.03;;;8.50;;
13415;SDS011;6779;50.150;8.680;2022-09-12T05:04:32;15.03;;;8.80;;
13415;SDS011;6779;50.150;8.680;2022-09-12T05:06:57;11.50;;;7.57;;
13415;SDS011;6779;50.150;8.680;2022-09-12T05:09:23;11.73;;;7.23;;
13415;SDS011;6779;50.150;8.680;2022-09-12T05:11:49;15.63;;;8.90;;
13415;SDS011;6779;50.150;8.680;2022-09-12T05:14:15;14.53;;;8.70;;
13415;SDS011;6779;50.150;8.680;2022-09-12T05:16:41;13.63;;;8.33;;
13415;SDS011;6779;50.150;8.680;2022-09-12T05:19:06;13.47;;;8.57;;
13415;SDS011;6779;50.150;8.680;2022-09-12T05:21:33;11.63;;;7.47;;
13415;SDS011;6779;50.150;8.680;2022-09-12T05:23:59;12.30;;;7.70;;
13415;SDS011;6779;50.150;8.680;2022-09-12T05:26:25;15.50;;;8.63;;
13415;SDS011;6779;50.150;8.680;2022-09-12T05:28:51;14.10;;;8.47;;
13415;SDS011;6779;50.150;8.680;2022-09-12T05:31:21;12.63;;;7.60;;
13415;SDS011;6779;50.150;8.680;2022-09-12T05:33:51;14.63;;;8.13;;
13415;SDS011;6779;50.150;8.680;2022-09-12T05:36:19;12.97;;;8.10;;
13415;SDS011;6779;50.150;8.680;2022-09-12T05:38:46;11.57;;;8.00;;
13415;SDS011;6779;50.150;8.680;2022-09-12T05:41:13;13.10;;;7.57;;
13415;SDS011;6779;50.150;8.680;2022-09-12T05:43:41;14.37;;;7.93;;
13415;SDS011;6779;50.150;8.680;2022-09-12T05:46:08;16.37;;;9.20;;
13415;SDS011;6779;50.150;8.680;2022-09-12T05:48:45;12.90;;;8.37;;
13415;SDS011;6779;50.150;8.680;2022-09-12T05:51:13;14.30;;;8.43;;
13415;SDS011;6779;50.150;8.680;2022-09-12T05:53:44;13.20;;;8.77;;
13415;SDS011;6779;50.150;8.680;2022-09-12T05:56:13;14.80;;;8.87;;
13415;SDS011;6779;50.150;8.680;2022-09-12T05:58:43;12.83;;;7.90;;
13415;SDS011;6779;50.150;8.680;2022-09-12T06:01:11;13.50;;;8.30;;
13415;SDS011;6779;50.150;8.680;2022-09-12T06:03:40;12.93;;;7.80;;
13415;SDS011;6779;50.150;8.680;2022-09-12T06:06:11;14.83;;;8.17;;
13415;SDS011;6779;50.150;8.680;2022-09-12T06:08:38;13.03;;;8.60;;
13415;SDS011;6779;50.150;8.680;2022-09-12T06:11:06;13.27;;;7.97;;
13415;SDS011;6779;50.150;8.680;2022-09-12T06:13:34;12.60;;;7.53;;
13415;SDS011;6779;50.150;8.680;2022-09-12T06:16:04;14.17;;;8.17;;
13415;SDS011;6779;50.150;8.680;2022-09-12T06:18:32;13.03;;;7.93;;
13415;SDS011;6779;50.150;8.680;2022-09-12T06:21:02;12.57;;;7.40;;
13415;SDS011;6779;50.150;8.680;2022-09-12T06:23:35;13.60;;;8.13;;
13415;SDS011;6779;50.150;8.680;2022-09-12T06:26:02;13.13;;;8.00;;
13415;SDS011;6779;50.150;8.680;2022-09-12T06:28:29;15.43;;;7.73;;
13415;SDS011;6779;50.150;8.680;2022-09-12T06:31:11;12.73;;;7.53;;
13415;SDS011;6779;50.150;8.680;2022-09-12T06:33:39;14.77;;;8.30;;
13415;SDS011;6779;50.150;8.680;2022-09-12T06:36:07;10.83;;;7.53;;
13415;SDS011;6779;50.150;8.680;2022-09-12T06:38:34;14.37;;;7.97;;
13415;SDS011;6779;50.150;8.680;2022-09-12T06:41:03;11.73;;;7.40;;
13415;SDS011;6779;50.150;8.680;2022-09-12T06:43:30;12.90;;;7.50;;
13415;SDS011;6779;50.150;8.680;2022-09-12T06:45:56;11.30;;;7.63;;
13415;SDS011;6779;50.150;8.680;2022-09-12T06:48:22;10.37;;;6.87;;
13415;SDS011;6779;50.150;8.680;2022-09-12T06:50:55;12.73;;;7.60;;
13415;SDS011;6779;50.150;8.680;2022-09-12T06:53:22;14.07;;;7.77;;
13415;SDS011;6779;50.150;8.680;2022-09-12T06:55:58;13.53;;;8.10;;
13415;SDS011;6779;50.150;8.680;2022-09-12T06:58:26;11.43;;;7.47;;
13415;SDS011;6779;50.150;8.680;2022-09-12T07:00:52;10.93;;;7.37;;
13415;SDS011;6779;50.150;8.680;2022-09-12T07:03:30;12.40;;;7.53;;
13415;SDS011;6779;50.150;8.680;2022-09-12T07:05:57;9.77;;;6.73;;
13415;SDS011;6779;50.150;8.680;2022-09-12T07:08:27;12.33;;;6.43;;
13415;SDS011;6779;50.150;8.680;2022-09-12T07:10:55;10.03;;;5.93;;
13415;SDS011;6779;50.150;8.680;2022-09-12T07:13:22;10.93;;;6.30;;
13415;SDS011;6779;50.150;8.680;2022-09-12T07:15:49;9.33;;;6.30;;
13415;SDS011;6779;50.150;8.680;2022-09-12T07:18:15;9.77;;;6.17;;
13415;SDS011;6779;50.150;8.680;2022-09-12T07:20:41;9.00;;;6.10;;
13415;SDS011;6779;50.150;8.680;2022-09-12T07:23:07;9.73;;;5.77;;
13415;SDS011;6779;50.150;8.680;2022-09-12T07:25:32;9.93;;;6.17;;
13415;SDS011;6779;50.150;8.680;2022-09-12T07:27:58;8.47;;;6.53;;
13415;SDS011;6779;50.150;8.680;2022-09-12T07:30:24;8.90;;;6.00;;
13415;SDS011;6779;50.150;8.680;2022-09-12T07:32:52;10.43;;;6.63;;
13415;SDS011;6779;50.150;8.680;2022-09-12T07:35:19;9.00;;;6.60;;
13415;SDS011;6779;50.150;8.680;2022-09-12T07:37:45;9.07;;;6.17;;
13415;SDS011;6779;50.150;8.680;2022-09-12T07:40:11;8.53;;;6.00;;
13415;SDS011;6779;50.150;8.680;2022-09-12T07:42:36;10.30;;;6.13;;
13415;SDS011;6779;50.150;8.680;2022-09-12T07:45:02;10.80;;;6.90;;
13415;SDS011;6779;50.150;8.680;2022-09-12T07:47:28;9.50;;;5.90;;
13415;SDS011;6779;50.150;8.680;2022-09-12T07:49:53;11.03;;;7.13;;
13415;SDS011;6779;50.150;8.680;2022-09-12T07:52:19;10.10;;;6.17;;
13415;SDS011;6779;50.150;8.680;2022-09-12T07:54:44;8.17;;;5.90;;
13415;SDS011;6779;50.150;8.680;2022-09-12T07:57:10;7.47;;;5.60;;
13415;SDS011;6779;50.150;8.680;2022-09-12T07:59:35;9.57;;;5.90;;
13415;SDS011;6779;50.150;8.680;2022-09-12T08:02:09;8.23;;;5.57;;
13415;SDS011;6779;50.150;8.680;2022-09-12T08:04:40;9.57;;;6.27;;
13415;SDS011;6779;50.150;8.680;2022-09-12T08:07:07;9.73;;;6.00;;
13415;SDS011;6779;50.150;8.680;2022-09-12T08:09:33;8.53;;;6.07;;
13415;SDS011;6779;50.150;8.680;2022-09-12T08:11:59;7.80;;;5.80;;
13415;SDS011;6779;50.150;8.680;2022-09-12T08:14:24;10.43;;;6.07;;
13415;SDS011;6779;50.150;8.680;2022-09-12T08:16:51;7.53;;;5.30;;
13415;SDS011;6779;50.150;8.680;2022-09-12T08:19:17;7.13;;;5.60;;
13415;SDS011;6779;50.150;8.680;2022-09-12T08:21:42;7.40;;;5.90;;
13415;SDS011;6779;50.150;8.680;2022-09-12T08:24:09;6.63;;;5.23;;
13415;SDS011;6779;50.150;8.680;2022-09-12T08:26:36;8.10;;;5.73;;
13415;SDS011;6779;50.150;8.680;2022-09-12T08:29:02;8.00;;;5.90;;
13415;SDS011;6779;50.150;8.680;2022-09-12T08:31:28;9.53;;;6.00;;
13415;SDS011;6779;50.150;8.680;2022-09-12T08:34:00;9.13;;;6.10;;
13415;SDS011;6779;50.150;8.680;2022-09-12T08:36:26;7.70;;;5.93;;
13415;SDS011;6779;50.150;8.680;2022-09-12T08:38:54;9.47;;;6.03;;
13415;SDS011;6779;50.150;8.680;2022-09-12T08:47:07;7.83;;;5.40;;
13415;SDS011;6779;50.150;8.680;2022-09-12T08:50:11;7.47;;;5.20;;
13415;SDS011;6779;50.150;8.680;2022-09-12T08:52:50;6.50;;;4.97;;
13415;SDS011;6779;50.150;8.680;2022-09-12T08:57:52;7.00;;;5.30;;
13415;SDS011;6779;50.150;8.680;2022-09-12T09:00:18;6.83;;;5.30;;
13415;SDS011;6779;50.150;8.680;2022-09-12T09:05:50;6.87;;;4.87;;
13415;SDS011;6779;50.150;8.680;2022-09-12T09:08:58;5.63;;;4.97;;
13415;SDS011;6779;50.150;8.680;2022-09-12T09:11:29;5.43;;;4.37;;
13415;SDS011;6779;50.150;8.680;2022-09-12T09:14:58;6.87;;;4.93;;
13415;SDS011;6779;50.150;8.680;2022-09-12T09:17:36;6.17;;;5.07;;
13415;SDS011;6779;50.150;8.680;2022-09-12T09:20:05;5.43;;;4.53;;
13415;SDS011;6779;50.150;8.680;2022-09-12T09:22:51;7.80;;;4.20;;
13415;SDS011;6779;50.150;8.680;2022-09-12T09:25:47;5.10;;;4.53;;
13415;SDS011;6779;50.150;8.680;2022-09-12T09:28:43;7.22;;;4.57;;
13415;SDS011;6779;50.150;8.680;2022-09-12T09:31:25;5.13;;;4.13;;
13415;SDS011;6779;50.150;8.680;2022-09-12T09:33:57;5.43;;;4.93;;
13415;SDS011;6779;50.150;8.680;2022-09-12T09:36:33;10.20;;;5.65;;
13415;SDS011;6779;50.150;8.680;2022-09-12T09:39:11;5.45;;;4.85;;
13415;SDS011;6779;50.150;8.680;2022-09-12T09:42:28;5.30;;;4.57;;
13415;SDS011;6779;50.150;8.680;2022-09-12T09:44:45;5.25;;;4.75;;
13415;SDS011;6779;50.150;8.680;2022-09-12T09:47:13;5.22;;;4.70;;
13415;SDS011;6779;50.150;8.680;2022-09-12T09:49:39;5.25;;;4.70;;
13415;SDS011;6779;50.150;8.680;2022-09-12T09:52:06;6.82;;;4.93;;
13415;SDS011;6779;50.150;8.680;2022-09-12T09:54:37;5.90;;;5.32;;
13415;SDS011;6779;50.150;8.680;2022-09-12T10:03:05;5.97;;;5.20;;
13415;SDS011;6779;50.150;8.680;2022-09-12T10:05:49;6.57;;;5.25;;
13415;SDS011;6779;50.150;8.680;2022-09-12T10:08:24;5.28;;;4.22;;
13415;SDS011;6779;50.150;8.680;2022-09-12T10:10:52;6.40;;;4.72;;
13415;SDS011;6779;50.150;8.680;2022-09-12T10:13:24;7.35;;;5.10;;
13415;SDS011;6779;50.150;8.680;2022-09-12T10:15:58;7.18;;;4.72;;
13415;SDS011;6779;50.150;8.680;2022-09-12T10:18:36;5.80;;;4.85;;
13415;SDS011;6779;50.150;8.680;2022-09-12T10:21:13;6.97;;;5.22;;
13415;SDS011;6779;50.150;8.680;2022-09-12T10:29:32;6.40;;;4.85;;
13415;SDS011;6779;50.150;8.680;2022-09-12T10:32:00;7.03;;;5.03;;
13415;SDS011;6779;50.150;8.680;2022-09-12T10:34:32;5.78;;;4.93;;
13415;SDS011;6779;50.150;8.680;2022-09-12T10:37:06;6.45;;;4.93;;
13415;SDS011;6779;50.150;8.680;2022-09-12T10:39:34;6.38;;;5.22;;
13415;SDS011;6779;50.150;8.680;2022-09-12T10:42:02;7.70;;;5.28;;
13415;SDS011;6779;50.150;8.680;2022-09-12T10:44:30;6.85;;;4.45;;
13415;SDS011;6779;50.150;8.680;2022-09-12T10:47:00;5.47;;;4.70;;
13415;SDS011;6779;50.150;8.680;2022-09-12T10:49:44;6.25;;;4.80;;
13415;SDS011;6779;50.150;8.680;2022-09-12T10:52:21;6.18;;;5.28;;
13415;SDS011;6779;50.150;8.680;2022-09-12T10:54:48;4.97;;;4.53;;
13415;SDS011;6779;50.150;8.680;2022-09-12T10:59:57;7.18;;;5.00;;
13415;SDS011;6779;50.150;8.680;2022-09-12T11:03:01;5.47;;;4.88;;
13415;SDS011;6779;50.150;8.680;2022-09-12T11:11:17;6.97;;;4.32;;
13415;SDS011;6779;50.150;8.680;2022-09-12T11:16:40;6.70;;;4.50;;
13415;SDS011;6779;50.150;8.680;2022-09-12T11:22:39;4.50;;;3.83;;
13415;SDS011;6779;50.150;8.680;2022-09-12T11:25:33;5.13;;;3.75;;
13415;SDS011;6779;50.150;8.680;2022-09-12T11:34:12;10.20;;;3.92;;
13415;SDS011;6779;50.150;8.680;2022-09-12T11:39:42;4.00;;;3.28;;
13415;SDS011;6779;50.150;8.680;2022-09-12T11:42:12;4.63;;;3.63;;
13415;SDS011;6779;50.150;8.680;2022-09-12T11:44:44;5.50;;;3.63;;
13415;SDS011;6779;50.150;8.680;2022-09-12T11:47:13;5.35;;;3.80;;
13415;SDS011;6779;50.150;8.680;2022-09-12T11:49:43;5.70;;;3.80;;
13415;SDS011;6779;50.150;8.680;2022-09-12T11:52:25;4.65;;;3.40;;
13415;SDS011;6779;50.150;8.680;2022-09-12T11:57:44;4.33;;;3.63;;
13415;SDS011;6779;50.150;8.680;2022-09-12T12:05:39;4.83;;;3.90;;
13415;SDS011;6779;50.150;8.680;2022-09-12T12:08:25;4.90;;;4.00;;
13415;SDS011;6779;50.150;8.680;2022-09-12T12:11:00;6.80;;;4.30;;
13415;SDS011;6779;50.150;8.680;2022-09-12T12:13:29;5.70;;;3.80;;
13415;SDS011;6779;50.150;8.680;2022-09-12T12:15:59;4.40;;;4.00;;
13415;SDS011;6779;50.150;8.680;2022-09-12T12:18:31;4.57;;;3.50;;
13415;SDS011;6779;50.150;8.680;2022-09-12T12:29:09;5.20;;;3.37;;
13415;SDS011;6779;50.150;8.680;2022-09-12T12:36:56;4.37;;;3.53;;
13415;SDS011;6779;50.150;8.680;2022-09-12T12:42:01;3.77;;;3.47;;
13415;SDS011;6779;50.150;8.680;2022-09-12T12:47:17;4.33;;;3.33;;
13415;SDS011;6779;50.150;8.680;2022-09-12T12:49:48;5.23;;;3.57;;
13415;SDS011;6779;50.150;8.680;2022-09-12T12:52:17;6.73;;;3.83;;
13415;SDS011;6779;50.150;8.680;2022-09-12T12:59:49;5.03;;;3.87;;
13415;SDS011;6779;50.150;8.680;2022-09-12T13:02:21;4.27;;;3.33;;
13415;SDS011;6779;50.150;8.680;2022-09-12T13:04:51;6.23;;;4.07;;
13415;SDS011;6779;50.150;8.680;2022-09-12T13:07:23;4.60;;;3.53;;
13415;SDS011;6779;50.150;8.680;2022-09-12T13:09:53;4.03;;;3.40;;
13415;SDS011;6779;50.150;8.680;2022-09-12T13:12:20;4.10;;;3.10;;
13415;SDS011;6779;50.150;8.680;2022-09-12T13:14:55;3.97;;;3.07;;
13415;SDS011;6779;50.150;8.680;2022-09-12T13:17:27;3.00;;;2.70;;
13415;SDS011;6779;50.150;8.680;2022-09-12T13:22:37;4.57;;;3.20;;
13415;SDS011;6779;50.150;8.680;2022-09-12T13:25:17;4.33;;;3.27;;
13415;SDS011;6779;50.150;8.680;2022-09-12T13:30:38;3.30;;;2.80;;
13415;SDS011;6779;50.150;8.680;2022-09-12T13:33:09;4.27;;;3.20;;
13415;SDS011;6779;50.150;8.680;2022-09-12T13:44:27;4.40;;;3.07;;
13415;SDS011;6779;50.150;8.680;2022-09-12T13:46:57;4.57;;;2.80;;
13415;SDS011;6779;50.150;8.680;2022-09-12T13:49:34;3.60;;;2.87;;
13415;SDS011;6779;50.150;8.680;2022-09-12T13:52:03;3.03;;;2.70;;
13415;SDS011;6779;50.150;8.680;2022-09-12T13:54:31;4.07;;;2.97;;
13415;SDS011;6779;50.150;8.680;2022-09-12T13:57:01;3.83;;;2.90;;
13415;SDS011;6779;50.150;8.680;2022-09-12T13:59:28;3.57;;;2.97;;
13415;SDS011;6779;50.150;8.680;2022-09-12T14:02:19;4.47;;;3.50;;
13415;SDS011;6779;50.150;8.680;2022-09-12T14:04:47;4.97;;;3.17;;
13415;SDS011;6779;50.150;8.680;2022-09-12T14:07:33;3.60;;;3.00;;
13415;SDS011;6779;50.150;8.680;2022-09-12T14:10:18;5.17;;;3.53;;
13415;SDS011;6779;50.150;8.680;2022-09-12T14:12:48;3.00;;;2.50;;
13415;SDS011;6779;50.150;8.680;2022-09-12T14:15:16;4.83;;;3.47;;
13415;SDS011;6779;50.150;8.680;2022-09-12T14:17:49;4.13;;;2.97;;
13415;SDS011;6779;50.150;8.680;2022-09-12T14:20:17;3.23;;;2.90;;
13415;SDS011;6779;50.150;8.680;2022-09-12T14:22:44;3.87;;;3.30;;
13415;SDS011;6779;50.150;8.680;2022-09-12T14:25:18;4.13;;;3.40;;
13415;SDS011;6779;50.150;8.680;2022-09-12T14:27:47;3.20;;;2.80;;
13415;SDS011;6779;50.150;8.680;2022-09-12T14:30:23;3.93;;;3.13;;
13415;SDS011;6779;50.150;8.680;2022-09-12T14:35:41;5.00;;;3.93;;
13415;SDS011;6779;50.150;8.680;2022-09-12T14:40:41;4.50;;;3.03;;
13415;SDS011;6779;50.150;8.680;2022-09-12T14:45:55;4.10;;;3.00;;
13415;SDS011;6779;50.150;8.680;2022-09-12T14:48:23;4.63;;;3.20;;
13415;SDS011;6779;50.150;8.680;2022-09-12T14:50:50;4.60;;;3.47;;
13415;SDS011;6779;50.150;8.680;2022-09-12T14:55:49;4.37;;;3.00;;
13415;SDS011;6779;50.150;8.680;2022-09-12T15:00:59;3.20;;;2.77;;
13415;SDS011;6779;50.150;8.680;2022-09-12T15:06:05;2.93;;;2.60;;
13415;SDS011;6779;50.150;8.680;2022-09-12T15:08:44;3.53;;;2.80;;
13415;SDS011;6779;50.150;8.680;2022-09-12T15:11:09;3.47;;;2.73;;
13415;SDS011;6779;50.150;8.680;2022-09-12T15:13:39;4.77;;;3.50;;
13415;SDS011;6779;50.150;8.680;2022-09-12T15:16:06;4.17;;;2.87;;
13415;SDS011;6779;50.150;8.680;2022-09-12T15:18:34;4.33;;;3.80;;
13415;SDS011;6779;50.150;8.680;2022-09-12T15:21:01;4.20;;;3.80;;
13415;SDS011;6779;50.150;8.680;2022-09-12T15:23:39;4.90;;;3.43;;
13415;SDS011;6779;50.150;8.680;2022-09-12T15:26:14;3.40;;;3.07;;
13415;SDS011;6779;50.150;8.680;2022-09-12T15:28:44;4.93;;;4.10;;
13415;SDS011;6779;50.150;8.680;2022-09-12T15:31:31;4.17;;;3.43;;
13415;SDS011;6779;50.150;8.680;2022-09-12T15:33:57;4.13;;;3.73;;
13415;SDS011;6779;50.150;8.680;2022-09-12T15:36:24;4.93;;;3.60;;
13415;SDS011;6779;50.150;8.680;2022-09-12T15:38:51;3.20;;;2.90;;
13415;SDS011;6779;50.150;8.680;2022-09-12T15:41:37;5.00;;;3.27;;
13415;SDS011;6779;50.150;8.680;2022-09-12T15:44:03;3.83;;;3.40;;
13415;SDS011;6779;50.150;8.680;2022-09-12T15:46:30;4.77;;;3.30;;
13415;SDS011;6779;50.150;8.680;2022-09-12T15:48:55;3.93;;;3.27;;
13415;SDS011;6779;50.150;8.680;2022-09-12T15:51:21;5.57;;;4.03;;
13415;SDS011;6779;50.150;8.680;2022-09-12T15:53:47;3.73;;;3.10;;
13415;SDS011;6779;50.150;8.680;2022-09-12T15:56:18;3.93;;;3.53;;
13415;SDS011;6779;50.150;8.680;2022-09-12T15:58:45;4.83;;;3.50;;
13415;SDS011;6779;50.150;8.680;2022-09-12T16:01:12;6.80;;;3.37;;
13415;SDS011;6779;50.150;8.680;2022-09-12T16:03:38;4.20;;;2.93;;
13415;SDS011;6779;50.150;8.680;2022-09-12T16:06:04;3.53;;;2.80;;
13415;SDS011;6779;50.150;8.680;2022-09-12T16:08:31;7.17;;;3.50;;
13415;SDS011;6779;50.150;8.680;2022-09-12T16:10:59;4.83;;;3.63;;
13415;SDS011;6779;50.150;8.680;2022-09-12T16:13:28;4.00;;;3.30;;
13415;SDS011;6779;50.150;8.680;2022-09-12T16:15:56;5.23;;;3.87;;
13415;SDS011;6779;50.150;8.680;2022-09-12T16:18:22;13.07;;;9.57;;
13415;SDS011;6779;50.150;8.680;2022-09-12T16:20:51;4.77;;;3.20;;
13415;SDS011;6779;50.150;8.680;2022-09-12T16:23:18;6.57;;;3.67;;
13415;SDS011;6779;50.150;8.680;2022-09-12T16:25:44;4.13;;;3.50;;
13415;SDS011;6779;50.150;8.680;2022-09-12T16:28:10;3.60;;;3.30;;
13415;SDS011;6779;50.150;8.680;2022-09-12T16:30:35;3.93;;;3.17;;
13415;SDS011;6779;50.150;8.680;2022-09-12T16:33:01;6.03;;;3.33;;
13415;SDS011;6779;50.150;8.680;2022-09-12T16:35:26;4.20;;;3.27;;
13415;SDS011;6779;50.150;8.680;2022-09-12T16:37:52;4.80;;;3.47;;
13415;SDS011;6779;50.150;8.680;2022-09-12T16:40:18;4.33;;;3.83;;
13415;SDS011;6779;50.150;8.680;2022-09-12T16:42:44;4.17;;;3.43;;
13415;SDS011;6779;50.150;8.680;2022-09-12T16:45:10;4.23;;;3.60;;
13415;SDS011;6779;50.150;8.680;2022-09-12T16:47:36;4.70;;;3.63;;
13415;SDS011;6779;50.150;8.680;2022-09-12T16:50:02;4.27;;;3.50;;
13415;SDS011;6779;50.150;8.680;2022-09-12T16:52:28;4.30;;;3.67;;
13415;SDS011;6779;50.150;8.680;2022-09-12T16:54:55;3.60;;;3.17;;
13415;SDS011;6779;50.150;8.680;2022-09-12T16:57:20;4.27;;;3.87;;
13415;SDS011;6779;50.150;8.680;2022-09-12T16:59:47;4.20;;;3.80;;
13415;SDS011;6779;50.150;8.680;2022-09-12T17:02:13;5.97;;;3.87;;
13415;SDS011;6779;50.150;8.680;2022-09-12T17:04:39;4.70;;;4.23;;
13415;SDS011;6779;50.150;8.680;2022-09-12T17:07:04;5.23;;;4.00;;
13415;SDS011;6779;50.150;8.680;2022-09-12T17:09:30;4.93;;;3.57;;
13415;SDS011;6779;50.150;8.680;2022-09-12T17:11:56;5.80;;;3.80;;
13415;SDS011;6779;50.150;8.680;2022-09-12T17:14:21;5.60;;;4.10;;
13415;SDS011;6779;50.150;8.680;2022-09-12T17:16:47;3.87;;;3.33;;
13415;SDS011;6779;50.150;8.680;2022-09-12T17:19:14;4.30;;;3.60;;
13415;SDS011;6779;50.150;8.680;2022-09-12T17:21:42;5.60;;;4.33;;
13415;SDS011;6779;50.150;8.680;2022-09-12T17:24:09;9.23;;;4.53;;
13415;SDS011;6779;50.150;8.680;2022-09-12T17:26:35;6.03;;;4.53;;
13415;SDS011;6779;50.150;8.680;2022-09-12T17:29:00;5.70;;;4.60;;
13415;SDS011;6779;50.150;8.680;2022-09-12T17:31:27;5.17;;;4.50;;
13415;SDS011;6779;50.150;8.680;2022-09-12T17:33:59;6.67;;;4.47;;
13415;SDS011;6779;50.150;8.680;2022-09-12T17:36:25;6.63;;;3.97;;
13415;SDS011;6779;50.150;8.680;2022-09-12T17:38:51;4.13;;;3.47;;
13415;SDS011;6779;50.150;8.680;2022-09-12T17:41:19;5.70;;;4.30;;
13415;SDS011;6779;50.150;8.680;2022-09-12T17:43:47;4.53;;;4.07;;
13415;SDS011;6779;50.150;8.680;2022-09-12T17:46:15;5.13;;;3.80;;